Time;durP1;ratioP1;P1;durP2;ratioP2;P2;SDS_P1;SDS_P2;PMS_P1;PMS_P2;Temp;Humidity;BMP_temperature;BMP_pressure;BME280_temperature;BME280_humidity;BME280_pressure;Samples;Min_cycle;Max_cycle;Signal;HPM_P1;HPM_P2
2022/03/02 00:01:09;;;;;;;18.85;9.60;;;;;;;;;;5085847;28;20357;-89
2022/03/02 00:03:36;;;;;;;14.55;9.38;;;;;;;;;;5090889;28;20042;-89
2022/03/02 00:06:02;;;;;;;20.85;9.13;;;;;;;;;;5093582;28;20018;-88
2022/03/02 00:08:28;;;;;;;15.60;8.77;;;;;;;;;;5090238;28;20032;-89
2022/03/02 00:10:54;;;;;;;14.45;8.73;;;;;;;;;;5086487;28;20020;-88
2022/03/02 00:13:21;;;;;;;16.38;8.75;;;;;;;;;;5086948;28;20495;-89
2022/03/02 00:15:48;;;;;;;16.05;8.75;;;;;;;;;;5088199;28;20488;-89
2022/03/02 00:18:14;;;;;;;14.35;8.77;;;;;;;;;;5086755;28;20085;-89
2022/03/02 00:20:40;;;;;;;14.05;8.32;;;;;;;;;;5086532;28;20416;-88
2022/03/02 00:23:07;;;;;;;15.23;9.15;;;;;;;;;;5086598;28;20043;-89
2022/03/02 00:25:33;;;;;;;11.85;8.02;;;;;;;;;;5087079;28;20024;-89
2022/03/02 00:27:59;;;;;;;14.77;8.93;;;;;;;;;;5086828;28;20024;-88
2022/03/02 00:30:28;;;;;;;14.02;7.82;;;;;;;;;;5087212;28;20435;-89
2022/03/02 00:32:54;;;;;;;15.50;7.97;;;;;;;;;;5087346;28;20427;-89
2022/03/02 00:35:21;;;;;;;13.85;8.05;;;;;;;;;;5088316;28;20024;-89
2022/03/02 00:37:47;;;;;;;13.73;7.85;;;;;;;;;;5088192;28;20036;-89
2022/03/02 00:40:13;;;;;;;20.50;8.98;;;;;;;;;;5086715;28;20021;-91
2022/03/02 00:42:39;;;;;;;17.25;8.25;;;;;;;;;;5087308;28;20499;-88
2022/03/02 00:45:06;;;;;;;14.85;8.30;;;;;;;;;;5086855;28;20048;-89
2022/03/02 00:47:32;;;;;;;18.48;8.13;;;;;;;;;;5087763;28;20028;-89
2022/03/02 00:49:59;;;;;;;14.20;8.00;;;;;;;;;;5086454;28;20024;-88
2022/03/02 00:52:25;;;;;;;14.18;8.02;;;;;;;;;;5085918;28;20024;-90
2022/03/02 00:54:51;;;;;;;13.45;7.38;;;;;;;;;;5086643;28;20119;-89
2022/03/02 00:57:17;;;;;;;15.38;7.63;;;;;;;;;;5086324;28;20032;-88
2022/03/02 00:59:43;;;;;;;16.83;7.65;;;;;;;;;;5085519;28;20441;-89
2022/03/02 01:02:09;;;;;;;12.02;7.13;;;;;;;;;;5085504;28;20035;-92
2022/03/02 01:04:35;;;;;;;12.02;7.18;;;;;;;;;;5084424;28;20523;-91
2022/03/02 01:07:01;;;;;;;14.63;7.30;;;;;;;;;;5085975;28;20024;-92
2022/03/02 01:09:28;;;;;;;10.95;7.32;;;;;;;;;;5086047;28;20032;-91
2022/03/02 01:11:54;;;;;;;13.88;7.53;;;;;;;;;;5086016;28;20399;-88
2022/03/02 01:14:20;;;;;;;12.38;7.78;;;;;;;;;;5086516;28;20490;-90
2022/03/02 01:16:46;;;;;;;11.93;6.97;;;;;;;;;;5086443;28;20026;-91
2022/03/02 01:19:12;;;;;;;12.63;7.30;;;;;;;;;;5085585;28;20198;-90
2022/03/02 01:21:38;;;;;;;11.07;7.25;;;;;;;;;;5086179;28;20030;-90
2022/03/02 01:24:05;;;;;;;14.68;7.75;;;;;;;;;;5085541;28;20028;-89
2022/03/02 01:26:31;;;;;;;15.73;7.10;;;;;;;;;;5085674;28;20085;-90
2022/03/02 01:28:57;;;;;;;11.20;7.05;;;;;;;;;;5086019;28;20433;-90
2022/03/02 01:31:27;;;;;;;13.75;7.63;;;;;;;;;;5087298;28;20028;-91
2022/03/02 01:33:53;;;;;;;12.70;7.07;;;;;;;;;;5086212;28;20105;-90
2022/03/02 01:36:20;;;;;;;12.35;7.25;;;;;;;;;;5087578;28;20024;-91
2022/03/02 01:38:46;;;;;;;12.18;7.75;;;;;;;;;;5086677;28;20506;-90
2022/03/02 01:41:14;;;;;;;13.98;7.15;;;;;;;;;;5084839;28;20047;-90
2022/03/02 01:43:41;;;;;;;13.20;7.97;;;;;;;;;;5085266;28;20040;-91
2022/03/02 01:46:07;;;;;;;13.82;7.65;;;;;;;;;;5085011;28;20107;-89
2022/03/02 01:48:33;;;;;;;14.60;7.90;;;;;;;;;;5084970;28;20032;-90
2022/03/02 01:50:59;;;;;;;14.55;7.82;;;;;;;;;;5086066;28;20020;-90
2022/03/02 01:53:25;;;;;;;14.35;7.78;;;;;;;;;;5085101;28;20028;-90
2022/03/02 01:55:51;;;;;;;16.20;7.32;;;;;;;;;;5086499;28;20036;-91
2022/03/02 01:58:17;;;;;;;11.85;7.78;;;;;;;;;;5086188;28;20032;-90
2022/03/02 02:00:44;;;;;;;12.25;7.50;;;;;;;;;;5086062;28;20024;-89
2022/03/02 02:03:10;;;;;;;16.38;8.38;;;;;;;;;;5084670;28;20044;-90
2022/03/02 02:05:36;;;;;;;13.93;8.23;;;;;;;;;;5084117;28;20012;-90
2022/03/02 02:08:02;;;;;;;15.15;7.95;;;;;;;;;;5084489;28;20035;-90
2022/03/02 02:10:28;;;;;;;16.27;8.23;;;;;;;;;;5085845;28;20024;-89
2022/03/02 02:12:54;;;;;;;12.75;7.97;;;;;;;;;;5085807;28;20396;-90
2022/03/02 02:15:21;;;;;;;13.80;8.00;;;;;;;;;;5085649;28;20028;-89
2022/03/02 02:17:47;;;;;;;14.43;8.27;;;;;;;;;;5084845;28;20024;-91
2022/03/02 02:20:14;;;;;;;13.82;8.27;;;;;;;;;;5085475;28;20024;-90
2022/03/02 02:22:43;;;;;;;14.18;8.85;;;;;;;;;;5084599;28;20048;-90
2022/03/02 02:25:10;;;;;;;14.73;8.15;;;;;;;;;;5087796;28;20030;-90
2022/03/02 02:27:36;;;;;;;14.07;8.75;;;;;;;;;;5089080;28;20504;-90
2022/03/02 02:30:03;;;;;;;13.57;8.57;;;;;;;;;;5090409;28;20051;-89
2022/03/02 02:32:29;;;;;;;14.27;8.15;;;;;;;;;;5089810;28;20020;-89
2022/03/02 02:34:57;;;;;;;16.25;9.68;;;;;;;;;;5090075;28;20036;-90
2022/03/02 02:37:24;;;;;;;14.25;9.18;;;;;;;;;;5090018;28;20024;-90
2022/03/02 02:39:54;;;;;;;15.60;9.13;;;;;;;;;;5088759;28;20031;-90
2022/03/02 02:42:20;;;;;;;16.17;9.57;;;;;;;;;;5087975;28;20036;-89
2022/03/02 02:44:47;;;;;;;16.75;9.75;;;;;;;;;;5088712;28;20347;-91
2022/03/02 02:47:13;;;;;;;15.45;9.23;;;;;;;;;;5095600;28;20570;-90
2022/03/02 02:49:39;;;;;;;16.60;10.18;;;;;;;;;;5090190;28;20028;-90
2022/03/02 02:52:05;;;;;;;19.08;9.90;;;;;;;;;;5090612;28;20044;-90
2022/03/02 02:54:32;;;;;;;13.07;9.07;;;;;;;;;;5088576;28;20031;-91
2022/03/02 02:56:58;;;;;;;15.70;9.80;;;;;;;;;;5088298;28;20039;-90
2022/03/02 02:59:24;;;;;;;15.98;9.45;;;;;;;;;;5089309;28;20028;-90
2022/03/02 03:01:50;;;;;;;13.80;9.48;;;;;;;;;;5088347;28;20044;-89
2022/03/02 03:04:16;;;;;;;16.02;9.35;;;;;;;;;;5088925;28;20028;-91
2022/03/02 03:06:42;;;;;;;16.70;8.77;;;;;;;;;;5088333;28;20037;-90
2022/03/02 03:09:09;;;;;;;16.13;9.35;;;;;;;;;;5089586;28;20396;-90
2022/03/02 03:11:39;;;;;;;18.70;8.85;;;;;;;;;;5087401;28;20028;-91
2022/03/02 03:14:12;;;;;;;14.38;9.70;;;;;;;;;;5088320;28;20036;-90
2022/03/02 03:16:39;;;;;;;17.05;9.27;;;;;;;;;;5089483;28;20027;-90
2022/03/02 03:19:06;;;;;;;14.90;9.18;;;;;;;;;;5088822;28;20023;-89
2022/03/02 03:21:32;;;;;;;20.38;9.57;;;;;;;;;;5087673;28;20073;-89
2022/03/02 03:23:58;;;;;;;17.33;9.00;;;;;;;;;;5089854;28;20031;-91
2022/03/02 03:26:25;;;;;;;15.43;8.52;;;;;;;;;;5088872;28;20024;-89
2022/03/02 03:28:51;;;;;;;22.27;8.93;;;;;;;;;;5087612;28;20028;-91
2022/03/02 03:31:17;;;;;;;16.77;9.30;;;;;;;;;;5087537;28;20528;-90
2022/03/02 03:33:43;;;;;;;21.48;8.43;;;;;;;;;;5087304;28;20090;-89
2022/03/02 03:36:09;;;;;;;16.38;7.93;;;;;;;;;;5087569;28;20027;-89
2022/03/02 03:38:35;;;;;;;14.85;8.50;;;;;;;;;;5088429;28;20449;-89
2022/03/02 03:41:01;;;;;;;15.45;8.80;;;;;;;;;;5087044;28;20028;-90
2022/03/02 03:43:28;;;;;;;12.73;8.85;;;;;;;;;;5091206;28;20074;-90
2022/03/02 03:45:54;;;;;;;14.13;9.07;;;;;;;;;;5091889;28;20020;-89
2022/03/02 03:48:20;;;;;;;15.88;8.90;;;;;;;;;;5090383;28;20032;-89
2022/03/02 03:50:46;;;;;;;19.85;8.70;;;;;;;;;;5090505;28;20031;-89
2022/03/02 03:53:13;;;;;;;12.50;8.63;;;;;;;;;;5090419;28;20488;-90
2022/03/02 03:55:39;;;;;;;16.60;8.25;;;;;;;;;;5089743;28;20024;-90
2022/03/02 03:58:08;;;;;;;12.43;8.02;;;;;;;;;;5090439;28;20035;-89
2022/03/02 04:00:34;;;;;;;16.45;7.85;;;;;;;;;;5090229;28;20361;-89
2022/03/02 04:03:01;;;;;;;18.85;8.68;;;;;;;;;;5092501;28;20347;-88
2022/03/02 04:05:27;;;;;;;14.95;8.00;;;;;;;;;;5091034;28;20484;-90
2022/03/02 04:07:53;;;;;;;13.63;8.48;;;;;;;;;;5090559;28;20035;-89
2022/03/02 04:10:19;;;;;;;14.27;8.35;;;;;;;;;;5090410;28;20496;-88
2022/03/02 04:12:46;;;;;;;15.63;8.25;;;;;;;;;;5090277;28;20024;-88
2022/03/02 04:15:12;;;;;;;16.30;8.35;;;;;;;;;;5090263;28;20034;-88
2022/03/02 04:17:38;;;;;;;15.93;8.77;;;;;;;;;;5090348;28;20391;-88
2022/03/02 04:20:05;;;;;;;15.02;8.75;;;;;;;;;;5091139;28;20032;-89
2022/03/02 04:22:31;;;;;;;18.23;9.05;;;;;;;;;;5090577;28;20483;-91
2022/03/02 04:24:58;;;;;;;13.68;8.70;;;;;;;;;;5092121;28;20434;-90
2022/03/02 04:27:24;;;;;;;13.10;8.40;;;;;;;;;;5091267;28;20479;-90
2022/03/02 04:29:50;;;;;;;14.90;8.98;;;;;;;;;;5089802;28;20039;-90
2022/03/02 04:32:16;;;;;;;14.77;8.98;;;;;;;;;;5089859;28;20028;-91
2022/03/02 04:34:42;;;;;;;16.83;8.88;;;;;;;;;;5089773;28;20028;-91
2022/03/02 04:37:08;;;;;;;18.10;9.07;;;;;;;;;;5089953;28;20024;-91
2022/03/02 04:39:35;;;;;;;21.88;9.80;;;;;;;;;;5091355;28;20031;-90
2022/03/02 04:42:01;;;;;;;16.77;9.88;;;;;;;;;;5091570;28;20028;-91
2022/03/02 04:44:27;;;;;;;15.43;9.60;;;;;;;;;;5089659;28;20031;-89
2022/03/02 04:46:53;;;;;;;16.73;9.23;;;;;;;;;;5089174;28;20491;-90
2022/03/02 04:49:20;;;;;;;17.50;9.90;;;;;;;;;;5088890;28;20038;-89
2022/03/02 04:51:47;;;;;;;13.80;9.75;;;;;;;;;;5089004;28;20027;-90
2022/03/02 04:55:05;;;;;;;16.50;9.77;;;;;;;;;;5090638;28;20024;-90
2022/03/02 04:56:59;;;;;;;19.40;9.30;;;;;;;;;;5091032;28;20089;-90
2022/03/02 04:59:25;;;;;;;16.83;9.82;;;;;;;;;;5089535;28;20021;-89
2022/03/02 05:01:51;;;;;;;16.35;9.82;;;;;;;;;;5090571;28;20023;-88
2022/03/02 05:04:17;;;;;;;20.63;9.57;;;;;;;;;;5090027;28;20031;-90
2022/03/02 05:06:44;;;;;;;17.00;9.80;;;;;;;;;;5089449;28;20016;-89
2022/03/02 05:09:10;;;;;;;20.50;10.00;;;;;;;;;;5089391;28;20507;-90
2022/03/02 05:11:36;;;;;;;18.38;9.68;;;;;;;;;;5090381;28;20020;-89
2022/03/02 05:14:02;;;;;;;16.15;9.90;;;;;;;;;;5091170;28;20028;-90
2022/03/02 05:16:28;;;;;;;18.67;9.90;;;;;;;;;;5089430;28;20067;-90
2022/03/02 05:18:54;;;;;;;17.50;10.20;;;;;;;;;;5089186;28;20571;-89
2022/03/02 05:21:20;;;;;;;20.02;10.13;;;;;;;;;;5090236;28;20028;-91
2022/03/02 05:23:46;;;;;;;15.95;9.85;;;;;;;;;;5089280;28;20036;-91
2022/03/02 05:26:12;;;;;;;23.13;10.77;;;;;;;;;;5089239;28;20020;-90
2022/03/02 05:28:38;;;;;;;16.65;10.75;;;;;;;;;;5089122;28;20511;-89
2022/03/02 05:31:05;;;;;;;15.73;10.95;;;;;;;;;;5090839;28;20020;-90
2022/03/02 05:33:31;;;;;;;15.88;10.55;;;;;;;;;;5091174;28;20031;-90
2022/03/02 05:35:57;;;;;;;20.27;11.18;;;;;;;;;;5095156;28;20043;-89
2022/03/02 05:38:23;;;;;;;17.52;11.07;;;;;;;;;;5099842;28;20413;-90
2022/03/02 05:40:49;;;;;;;16.80;10.43;;;;;;;;;;5090362;28;20031;-90
2022/03/02 05:43:15;;;;;;;18.85;11.00;;;;;;;;;;5090133;28;20479;-89
2022/03/02 05:45:41;;;;;;;19.25;11.23;;;;;;;;;;5089010;28;20119;-90
2022/03/02 05:48:07;;;;;;;18.95;11.27;;;;;;;;;;5090066;28;20480;-90
2022/03/02 05:50:34;;;;;;;16.83;11.13;;;;;;;;;;5089794;28;20020;-90
2022/03/02 05:53:00;;;;;;;19.33;11.48;;;;;;;;;;5089313;28;20024;-90
2022/03/02 05:55:26;;;;;;;18.52;11.27;;;;;;;;;;5088666;28;20031;-90
2022/03/02 05:57:52;;;;;;;17.52;11.35;;;;;;;;;;5090132;28;20032;-89
2022/03/02 06:00:18;;;;;;;21.75;11.95;;;;;;;;;;5088282;28;20027;-89
2022/03/02 06:02:44;;;;;;;19.00;11.68;;;;;;;;;;5093363;28;20032;-89
2022/03/02 06:06:05;;;;;;;19.88;10.93;;;;;;;;;;5100738;28;20012;-91
2022/03/02 06:08:43;;;;;;;21.10;11.27;;;;;;;;;;5102898;28;20558;-94
2022/03/02 06:11:17;;;;;;;18.38;11.48;;;;;;;;;;5097302;28;20072;-93
2022/03/02 06:13:43;;;;;;;21.17;11.43;;;;;;;;;;5102004;28;20109;-87
2022/03/02 06:16:10;;;;;;;20.85;11.10;;;;;;;;;;5098800;28;20015;-86
2022/03/02 06:18:36;;;;;;;22.80;11.38;;;;;;;;;;5096980;28;20082;-89
2022/03/02 06:21:03;;;;;;;17.92;10.60;;;;;;;;;;5090326;28;20054;-91
2022/03/02 06:23:30;;;;;;;19.10;11.18;;;;;;;;;;5088843;28;20032;-91
2022/03/02 06:25:59;;;;;;;18.55;11.70;;;;;;;;;;5089008;28;20179;-92
2022/03/02 06:28:25;;;;;;;16.83;10.63;;;;;;;;;;5089189;28;20032;-92
2022/03/02 06:30:54;;;;;;;18.55;10.50;;;;;;;;;;5089155;28;20103;-92
2022/03/02 06:33:21;;;;;;;19.30;11.65;;;;;;;;;;5089370;28;20383;-90
2022/03/02 06:35:50;;;;;;;20.38;11.20;;;;;;;;;;5088877;28;20028;-91
2022/03/02 06:38:27;;;;;;;23.67;11.80;;;;;;;;;;5089400;28;20028;-92
2022/03/02 06:41:31;;;;;;;24.65;11.80;;;;;;;;;;5089425;28;20028;-94
2022/03/02 06:43:57;;;;;;;19.63;11.27;;;;;;;;;;5088943;28;20147;-92
2022/03/02 06:49:19;;;;;;;19.02;11.30;;;;;;;;;;5079438;28;20032;-93
2022/03/02 06:51:48;;;;;;;20.58;11.43;;;;;;;;;;5089175;28;20396;-92
2022/03/02 06:54:53;;;;;;;17.15;11.02;;;;;;;;;;5091231;28;20031;-92
2022/03/02 06:57:37;;;;;;;;;;;;;;;;;;;;;
2022/03/02 07:00:19;;;;;;;;;;;;;;;;;;;;;
2022/03/02 07:02:49;;;;;;;17.83;11.05;;;;;;;;;;5090005;28;20506;-91
2022/03/02 07:05:16;;;;;;;16.98;10.88;;;;;;;;;;5088759;28;20104;-92
2022/03/02 07:07:48;;;;;;;18.92;10.77;;;;;;;;;;5088991;28;20051;-92
2022/03/02 07:10:17;;;;;;;19.55;10.95;;;;;;;;;;5088711;28;20028;-91
2022/03/02 07:12:44;;;;;;;20.80;11.48;;;;;;;;;;5087260;28;20059;-92
2022/03/02 07:15:11;;;;;;;21.08;11.68;;;;;;;;;;5099164;28;20028;-92
2022/03/02 07:17:37;;;;;;;18.88;11.10;;;;;;;;;;5090152;28;20044;-91
2022/03/02 07:20:11;;;;;;;18.48;10.40;;;;;;;;;;5091640;28;20028;-93
2022/03/02 07:22:44;;;;;;;17.77;10.48;;;;;;;;;;5085580;28;20047;-92
2022/03/02 07:25:25;;;;;;;20.45;10.93;;;;;;;;;;5090743;28;20116;-92
2022/03/02 07:27:54;;;;;;;17.65;10.82;;;;;;;;;;5091750;28;20032;-92
2022/03/02 07:30:20;;;;;;;18.15;11.50;;;;;;;;;;5092433;28;20032;-90
2022/03/02 07:32:57;;;;;;;22.45;11.10;;;;;;;;;;5092188;28;20576;-92
2022/03/02 07:35:24;;;;;;;17.08;11.00;;;;;;;;;;5091986;28;20020;-90
2022/03/02 07:37:51;;;;;;;18.23;11.10;;;;;;;;;;5092462;28;20055;-91
2022/03/02 07:40:19;;;;;;;18.70;11.20;;;;;;;;;;5091495;28;20347;-92
2022/03/02 07:43:14;;;;;;;;;;;;;;;;;;;;;
2022/03/02 07:51:58;;;;;;;16.77;11.13;;;;;;;;;;5051283;28;20031;-92
2022/03/02 07:57:53;;;;;;;;;;;;;;;;;;;;;
2022/03/02 08:00:31;;;;;;;22.63;11.48;;;;;;;;;;5092750;28;20054;-92
2022/03/02 08:02:58;;;;;;;20.63;11.30;;;;;;;;;;5091277;28;20089;-92
2022/03/02 08:05:29;;;;;;;18.77;11.55;;;;;;;;;;5091403;28;20028;-91
2022/03/02 08:07:55;;;;;;;17.58;11.40;;;;;;;;;;5091496;28;20032;-92
2022/03/02 08:10:24;;;;;;;19.63;10.77;;;;;;;;;;5090625;28;20050;-91
2022/03/02 08:15:37;;;;;;;19.65;11.20;;;;;;;;;;5092334;28;20058;-92
2022/03/02 08:18:03;;;;;;;19.63;11.27;;;;;;;;;;5091326;28;20199;-92
2022/03/02 08:20:41;;;;;;;18.52;11.45;;;;;;;;;;5091284;28;20043;-92
2022/03/02 08:26:39;;;;;;;18.10;11.32;;;;;;;;;;5062935;28;20472;-92
2022/03/02 08:29:37;;;;;;;22.50;11.25;;;;;;;;;;5091162;28;20468;-91
2022/03/02 09:00:30;;;;;;;20.30;10.85;;;;;;;;;;4754008;30;20090;-93
2022/03/02 09:03:16;;;;;;;18.35;10.50;;;;;;;;;;4839873;29;20517;-92
2022/03/02 09:09:20;;;;;;;20.80;10.75;;;;;;;;;;4967258;28;20033;-92
2022/03/02 09:15:45;;;;;;;;;;;;;;;;;;;;;
2022/03/02 09:18:20;;;;;;;;;;;;;;;;;;;;;
2022/03/02 09:21:15;;;;;;;19.08;11.13;;;;;;;;;;4970502;28;20037;-92
2022/03/02 09:23:42;;;;;;;18.95;10.73;;;;;;;;;;4975317;28;20181;-91
2022/03/02 09:26:34;;;;;;;21.33;10.77;;;;;;;;;;5085662;28;20051;-91
2022/03/02 09:39:14;;;;;;;;;;;;;;;;;;;;;
2022/03/02 09:42:05;;;;;;;22.67;10.68;;;;;;;;;;5029819;28;20056;-91
2022/03/02 09:44:43;;;;;;;16.60;10.38;;;;;;;;;;4993224;28;20075;-92
2022/03/02 09:47:35;;;;;;;19.80;10.98;;;;;;;;;;5069408;28;20055;-92
2022/03/02 09:50:03;;;;;;;23.52;11.07;;;;;;;;;;5070416;28;20103;-92
2022/03/02 09:52:31;;;;;;;19.73;10.60;;;;;;;;;;5069648;28;20035;-91
2022/03/02 09:55:26;;;;;;;16.02;10.70;;;;;;;;;;5069735;28;20119;-93
2022/03/02 09:57:57;;;;;;;21.85;11.13;;;;;;;;;;5068943;28;20036;-92
2022/03/02 10:00:25;;;;;;;19.73;10.63;;;;;;;;;;5069182;28;20115;-92
2022/03/02 10:03:19;;;;;;;29.33;11.38;;;;;;;;;;5069387;28;20108;-93
2022/03/02 10:05:48;;;;;;;17.30;11.05;;;;;;;;;;5060283;28;20086;-90
2022/03/02 10:08:18;;;;;;;18.05;10.68;;;;;;;;;;5069973;28;20017;-91
2022/03/02 10:10:48;;;;;;;21.23;10.75;;;;;;;;;;5075745;28;21735;-91
2022/03/02 10:13:27;;;;;;;;;;;;;;;;;;;;;
2022/03/02 10:15:57;;;;;;;17.42;10.05;;;;;;;;;;5090741;28;20028;-91
2022/03/02 10:18:28;;;;;;;20.25;10.30;;;;;;;;;;5089771;28;20048;-93
2022/03/02 10:21:02;;;;;;;23.95;11.02;;;;;;;;;;5089132;28;20035;-92
2022/03/02 10:24:09;;;;;;;18.65;10.13;;;;;;;;;;5089375;28;20411;-92
2022/03/02 10:27:04;;;;;;;15.80;9.82;;;;;;;;;;5089536;28;20054;-92
2022/03/02 10:29:52;;;;;;;22.58;10.82;;;;;;;;;;5089430;28;20063;-93
2022/03/02 10:32:18;;;;;;;17.77;10.27;;;;;;;;;;5090639;28;20115;-90
2022/03/02 10:35:02;;;;;;;;;;;;;;;;;;;;;
2022/03/02 10:37:51;;;;;;;16.02;10.05;;;;;;;;;;5090421;28;20024;-92
2022/03/02 10:40:23;;;;;;;18.00;10.02;;;;;;;;;;5079513;28;20032;-92
2022/03/02 10:42:56;;;;;;;21.98;10.70;;;;;;;;;;5090129;28;20069;-92
2022/03/02 10:45:46;;;;;;;19.42;11.52;;;;;;;;;;5088964;28;20028;-92
2022/03/02 10:51:38;;;;;;;21.23;11.43;;;;;;;;;;5011544;28;20448;-94
2022/03/02 10:57:12;;;;;;;20.10;11.93;;;;;;;;;;4953234;28;20138;-91
2022/03/02 10:59:55;;;;;;;22.70;12.07;;;;;;;;;;5002087;28;20502;-92
2022/03/02 11:02:24;;;;;;;24.80;12.38;;;;;;;;;;5037514;28;20121;-90
2022/03/02 11:04:54;;;;;;;22.33;13.05;;;;;;;;;;5092530;28;20031;-90
2022/03/02 11:07:26;;;;;;;26.90;13.60;;;;;;;;;;5090655;28;21537;-93
2022/03/02 11:10:01;;;;;;;27.58;14.57;;;;;;;;;;5092619;28;20028;-90
2022/03/02 11:12:31;;;;;;;21.73;14.02;;;;;;;;;;5092490;28;20096;-93
2022/03/02 11:14:59;;;;;;;26.70;13.80;;;;;;;;;;5092398;28;20422;-93
2022/03/02 11:17:34;;;;;;;25.23;13.88;;;;;;;;;;5092684;28;20024;-94
2022/03/02 11:20:39;;;;;;;;;;;;;;;;;;;;;
2022/03/02 11:25:42;;;;;;;22.38;12.68;;;;;;;;;;5034167;28;20326;-93
2022/03/02 11:28:17;;;;;;;22.88;12.52;;;;;;;;;;5092113;28;20035;-92
2022/03/02 11:31:08;;;;;;;19.95;11.80;;;;;;;;;;5092643;28;20036;-94
2022/03/02 11:33:52;;;;;;;17.80;11.15;;;;;;;;;;5084169;28;20031;-94
2022/03/02 11:36:19;;;;;;;24.15;13.02;;;;;;;;;;5114846;28;20028;-90
2022/03/02 11:38:47;;;;;;;26.15;12.77;;;;;;;;;;5109430;28;20024;-90
2022/03/02 11:41:15;;;;;;;22.77;13.07;;;;;;;;;;5109924;28;20135;-92
2022/03/02 11:43:42;;;;;;;20.05;12.20;;;;;;;;;;5092114;28;20036;-91
2022/03/02 11:46:09;;;;;;;21.85;11.93;;;;;;;;;;5091923;28;20025;-91
2022/03/02 11:48:39;;;;;;;19.58;10.88;;;;;;;;;;5091657;28;20035;-91
2022/03/02 11:51:08;;;;;;;20.73;11.65;;;;;;;;;;5091253;28;20028;-91
2022/03/02 11:53:39;;;;;;;18.40;11.15;;;;;;;;;;5091728;28;20115;-92
2022/03/02 11:56:08;;;;;;;21.98;10.30;;;;;;;;;;5092020;28;20020;-92
2022/03/02 11:58:55;;;;;;;15.80;10.50;;;;;;;;;;5090828;28;20071;-94
2022/03/02 12:01:25;;;;;;;17.60;11.13;;;;;;;;;;5092170;28;20024;-93
2022/03/02 12:04:00;;;;;;;21.35;11.95;;;;;;;;;;5092034;28;20090;-92
2022/03/02 12:06:27;;;;;;;21.08;11.05;;;;;;;;;;5092340;28;20024;-90
2022/03/02 12:08:54;;;;;;;18.25;11.10;;;;;;;;;;5091500;28;20024;-92
2022/03/02 12:11:25;;;;;;;18.08;10.93;;;;;;;;;;5091631;28;20020;-92
2022/03/02 12:14:12;;;;;;;23.83;12.75;;;;;;;;;;5090586;28;20062;-89
2022/03/02 12:16:38;;;;;;;22.20;12.03;;;;;;;;;;5100472;28;20027;-90
2022/03/02 12:19:05;;;;;;;20.85;11.48;;;;;;;;;;5110123;28;20591;-90
2022/03/02 12:21:31;;;;;;;24.55;12.63;;;;;;;;;;5110729;28;20053;-90
2022/03/02 12:23:59;;;;;;;18.35;11.00;;;;;;;;;;5110501;28;20035;-89
2022/03/02 12:26:25;;;;;;;19.55;10.43;;;;;;;;;;5107483;28;20042;-90
2022/03/02 12:28:56;;;;;;;25.02;11.25;;;;;;;;;;5100178;28;20080;-89
2022/03/02 12:31:32;;;;;;;21.40;11.68;;;;;;;;;;5096523;28;20483;-90
2022/03/02 12:34:14;;;;;;;22.77;11.32;;;;;;;;;;5091483;28;20077;-89
2022/03/02 12:36:41;;;;;;;21.35;11.52;;;;;;;;;;5090667;28;20054;-88
2022/03/02 12:39:08;;;;;;;20.70;11.70;;;;;;;;;;5090153;28;20024;-90
2022/03/02 12:41:35;;;;;;;19.27;11.43;;;;;;;;;;5092160;28;20024;-89
2022/03/02 12:44:02;;;;;;;22.17;12.25;;;;;;;;;;5102006;28;20038;-89
2022/03/02 12:46:28;;;;;;;19.10;12.10;;;;;;;;;;5111106;28;20041;-90
2022/03/02 12:48:55;;;;;;;20.55;12.45;;;;;;;;;;5110663;28;20034;-90
2022/03/02 12:51:23;;;;;;;19.08;11.55;;;;;;;;;;5110774;28;20019;-90
2022/03/02 12:53:50;;;;;;;23.90;12.15;;;;;;;;;;5111642;28;20028;-90
2022/03/02 12:56:17;;;;;;;22.60;11.75;;;;;;;;;;5109663;28;20038;-90
2022/03/02 12:58:44;;;;;;;22.38;11.52;;;;;;;;;;5110643;28;20024;-89
2022/03/02 13:01:11;;;;;;;16.17;10.93;;;;;;;;;;5109407;28;20033;-89
2022/03/02 13:03:40;;;;;;;18.85;11.27;;;;;;;;;;5110369;28;20028;-89
2022/03/02 13:06:09;;;;;;;21.10;11.45;;;;;;;;;;5109815;28;20096;-91
2022/03/02 13:08:38;;;;;;;22.02;11.27;;;;;;;;;;5105507;28;20027;-89
2022/03/02 13:11:04;;;;;;;20.80;11.05;;;;;;;;;;5093827;28;20385;-90
2022/03/02 13:13:41;;;;;;;21.65;11.70;;;;;;;;;;5090247;28;20070;-90
2022/03/02 13:16:17;;;;;;;18.08;11.20;;;;;;;;;;5088885;28;20024;-90
2022/03/02 13:18:44;;;;;;;17.15;10.10;;;;;;;;;;5089046;28;20161;-88
2022/03/02 13:21:25;;;;;;;20.63;11.10;;;;;;;;;;5090099;28;20031;-90
2022/03/02 13:24:23;;;;;;;17.00;10.35;;;;;;;;;;5090942;28;20036;-89
2022/03/02 13:26:49;;;;;;;17.63;9.82;;;;;;;;;;5045604;28;20047;-90
2022/03/02 13:29:15;;;;;;;17.83;10.20;;;;;;;;;;5088195;28;20020;-90
2022/03/02 13:32:02;;;;;;;18.70;10.38;;;;;;;;;;5088772;28;20480;-89
2022/03/02 13:34:29;;;;;;;16.60;9.70;;;;;;;;;;5088919;28;20448;-90
2022/03/02 13:37:03;;;;;;;23.35;10.55;;;;;;;;;;5089610;28;20035;-88
2022/03/02 13:39:49;;;;;;;16.98;10.00;;;;;;;;;;5089876;28;20120;-88
2022/03/02 13:42:21;;;;;;;19.45;10.80;;;;;;;;;;5089302;28;20388;-89
2022/03/02 13:44:47;;;;;;;20.05;10.45;;;;;;;;;;5088064;28;20039;-89
2022/03/02 13:47:14;;;;;;;21.20;10.13;;;;;;;;;;5088623;28;20074;-91
2022/03/02 13:49:47;;;;;;;19.83;10.18;;;;;;;;;;5089837;28;20028;-89
2022/03/02 13:52:17;;;;;;;23.00;11.23;;;;;;;;;;5100176;28;20062;-90
2022/03/02 13:54:43;;;;;;;20.25;10.40;;;;;;;;;;5102535;28;20032;-90
2022/03/02 13:57:20;;;;;;;18.17;10.13;;;;;;;;;;5086065;28;20036;-89
2022/03/02 13:59:46;;;;;;;27.77;11.18;;;;;;;;;;5084890;28;20420;-90
2022/03/02 14:02:12;;;;;;;17.58;9.73;;;;;;;;;;5086663;28;20028;-90
2022/03/02 14:04:45;;;;;;;18.50;10.57;;;;;;;;;;5086426;28;20031;-89
2022/03/02 14:07:11;;;;;;;21.42;10.88;;;;;;;;;;5086480;28;20035;-90
2022/03/02 14:09:37;;;;;;;19.38;10.60;;;;;;;;;;5109853;28;20020;-89
2022/03/02 14:12:04;;;;;;;18.02;9.55;;;;;;;;;;5103881;28;20118;-90
2022/03/02 14:14:34;;;;;;;22.48;9.88;;;;;;;;;;5088375;28;20028;-89
2022/03/02 14:17:02;;;;;;;15.20;9.02;;;;;;;;;;5088250;28;20483;-91
2022/03/02 14:19:30;;;;;;;17.38;9.05;;;;;;;;;;5089557;28;20025;-90
2022/03/02 14:22:00;;;;;;;17.88;8.88;;;;;;;;;;5092959;28;20035;-91
2022/03/02 14:24:28;;;;;;;14.95;8.35;;;;;;;;;;5094165;28;20483;-90
2022/03/02 14:27:05;;;;;;;13.60;8.20;;;;;;;;;;5093411;28;20028;-90
2022/03/02 14:29:32;;;;;;;21.00;8.18;;;;;;;;;;5091589;28;20046;-90
2022/03/02 14:32:00;;;;;;;12.52;7.50;;;;;;;;;;5092593;28;20034;-91
2022/03/02 14:34:43;;;;;;;18.27;7.97;;;;;;;;;;5093081;28;20157;-89
2022/03/02 14:37:12;;;;;;;15.32;7.80;;;;;;;;;;5093576;28;20028;-90
2022/03/02 14:39:55;;;;;;;8.20;5.57;;;;;;;;;;5092264;28;20028;-90
2022/03/02 14:42:21;;;;;;;8.75;4.57;;;;;;;;;;5092103;28;20020;-90
2022/03/02 14:45:04;;;;;;;11.82;3.90;;;;;;;;;;5092955;28;20255;-91
2022/03/02 14:47:30;;;;;;;9.45;3.72;;;;;;;;;;5093398;28;20024;-90
2022/03/02 14:49:56;;;;;;;7.97;3.95;;;;;;;;;;5091098;28;20040;-89
2022/03/02 14:52:29;;;;;;;14.55;4.55;;;;;;;;;;5086452;28;20028;-90
2022/03/02 14:54:57;;;;;;;8.98;4.47;;;;;;;;;;5088997;28;20024;-90
2022/03/02 14:57:27;;;;;;;6.22;3.72;;;;;;;;;;5090708;28;20492;-89
2022/03/02 14:59:54;;;;;;;9.40;4.22;;;;;;;;;;5088092;28;20063;-89
2022/03/02 15:02:21;;;;;;;13.52;5.28;;;;;;;;;;5087216;28;20169;-89
2022/03/02 15:05:00;;;;;;;9.38;4.72;;;;;;;;;;5089075;28;20089;-88
2022/03/02 15:07:39;;;;;;;11.40;5.45;;;;;;;;;;5088413;28;20430;-89
2022/03/02 15:10:06;;;;;;;11.73;5.85;;;;;;;;;;5089634;28;20048;-89
2022/03/02 15:12:36;;;;;;;11.52;5.72;;;;;;;;;;5088301;28;20476;-89
2022/03/02 15:15:15;;;;;;;12.05;5.68;;;;;;;;;;5090041;28;20054;-89
2022/03/02 15:17:42;;;;;;;9.65;4.90;;;;;;;;;;5110548;28;20403;-88
2022/03/02 15:20:12;;;;;;;11.80;4.38;;;;;;;;;;5100227;28;20032;-88
2022/03/02 15:22:40;;;;;;;11.25;3.83;;;;;;;;;;5090028;28;20069;-89
2022/03/02 15:25:10;;;;;;;6.13;3.65;;;;;;;;;;5088494;28;20546;-89
2022/03/02 15:27:36;;;;;;;9.43;3.83;;;;;;;;;;5089075;28;20039;-89
2022/03/02 15:30:11;;;;;;;9.95;4.00;;;;;;;;;;5088911;28;20072;-88
2022/03/02 15:32:38;;;;;;;8.18;4.25;;;;;;;;;;5090210;28;20020;-91
2022/03/02 15:35:05;;;;;;;8.25;3.72;;;;;;;;;;5090302;28;20024;-90
2022/03/02 15:37:34;;;;;;;8.00;3.92;;;;;;;;;;5090458;28;20059;-92
2022/03/02 15:40:08;;;;;;;9.75;4.63;;;;;;;;;;5090311;28;20059;-90
2022/03/02 15:42:57;;;;;;;8.77;4.60;;;;;;;;;;5086894;28;20051;-93
2022/03/02 15:45:25;;;;;;;10.60;4.68;;;;;;;;;;5098559;28;20434;-91
2022/03/02 15:47:52;;;;;;;10.63;5.10;;;;;;;;;;5111098;28;20096;-89
2022/03/02 15:50:21;;;;;;;18.27;5.85;;;;;;;;;;5102124;28;20036;-90
2022/03/02 15:52:55;;;;;;;13.38;5.00;;;;;;;;;;5088703;28;20032;-90
2022/03/02 15:55:22;;;;;;;9.13;5.22;;;;;;;;;;5091746;28;20019;-89
2022/03/02 15:57:52;;;;;;;11.02;4.85;;;;;;;;;;5095762;28;20043;-88
2022/03/02 16:00:23;;;;;;;11.75;5.28;;;;;;;;;;5101770;28;20103;-90
2022/03/02 16:02:52;;;;;;;8.27;5.38;;;;;;;;;;5098323;28;20088;-88
2022/03/02 16:05:19;;;;;;;7.55;4.30;;;;;;;;;;5094955;28;20031;-87